Time;durP1;ratioP1;P1;durP2;ratioP2;P2;SDS_P1;SDS_P2;PMS_P1;PMS_P2;Temp;Humidity;BMP_temperature;BMP_pressure;BME280_temperature;BME280_humidity;BME280_pressure;Samples;Min_cycle;Max_cycle;Signal;HPM_P1;HPM_P2
2021/07/25 00:01:05;;;;;;;15.43;8.67;;;;;;;18.64;100.00;100409.92;1709383;82;21109;-61
2021/07/25 00:03:32;;;;;;;17.70;10.03;;;;;;;18.59;100.00;100409.80;1719176;81;20988;-61
2021/07/25 00:05:58;;;;;;;16.50;9.40;;;;;;;18.66;100.00;100406.52;1718838;81;22206;-62
2021/07/25 00:08:25;;;;;;;18.00;10.40;;;;;;;18.73;100.00;100405.11;1720806;81;22638;-63
2021/07/25 00:10:51;;;;;;;15.50;10.30;;;;;;;18.69;100.00;100403.41;1716124;81;21040;-63
2021/07/25 00:13:19;;;;;;;16.37;10.23;;;;;;;18.73;100.00;100403.78;1720603;81;21176;-62
2021/07/25 00:15:47;;;;;;;16.83;9.70;;;;;;;18.74;100.00;100402.74;1708663;82;21486;-61
2021/07/25 00:18:14;;;;;;;19.47;10.23;;;;;;;18.72;100.00;100399.03;1721124;81;21027;-62
2021/07/25 00:20:40;;;;;;;16.83;10.53;;;;;;;18.67;100.00;100396.23;1721607;81;21067;-63
2021/07/25 00:23:07;;;;;;;17.13;10.00;;;;;;;18.69;100.00;100390.22;1723231;81;20893;-62
2021/07/25 00:25:35;;;;;;;16.63;10.20;;;;;;;18.69;100.00;100390.22;1720976;81;22137;-63
2021/07/25 00:28:03;;;;;;;22.93;11.33;;;;;;;18.55;100.00;100394.14;1721917;81;21019;-62
2021/07/25 00:30:30;;;;;;;14.47;9.57;;;;;;;18.51;100.00;100393.80;1724346;83;21628;-62
2021/07/25 00:32:56;;;;;;;19.47;11.83;;;;;;;18.45;100.00;100392.09;1724427;81;20980;-62
2021/07/25 00:35:23;;;;;;;16.90;10.70;;;;;;;18.51;100.00;100392.47;1725961;81;21073;-61
2021/07/25 00:37:52;;;;;;;18.43;9.87;;;;;;;18.39;100.00;100395.66;1711293;82;21158;-62
2021/07/25 00:40:29;;;;;;;17.53;9.70;;;;;;;18.49;100.00;100402.48;1717932;81;21102;-62
2021/07/25 00:42:56;;;;;;;18.83;10.00;;;;;;;18.57;100.00;100406.08;1724664;81;21035;-62
2021/07/25 00:45:23;;;;;;;18.33;10.10;;;;;;;18.50;100.00;100412.52;1723064;81;21031;-61
2021/07/25 00:47:49;;;;;;;17.57;9.93;;;;;;;18.58;100.00;100409.00;1722047;81;21639;-61
2021/07/25 00:50:16;;;;;;;21.37;10.67;;;;;;;18.56;100.00;100404.48;1721605;81;21127;-61
2021/07/25 00:52:42;;;;;;;13.30;8.53;;;;;;;18.49;100.00;100417.00;1722319;81;21469;-61
2021/07/25 00:55:12;;;;;;;17.03;9.80;;;;;;;18.44;100.00;100413.70;1706055;82;21554;-61
2021/07/25 00:57:39;;;;;;;15.27;8.70;;;;;;;18.42;100.00;100409.72;1685035;83;21509;-61
2021/07/25 01:00:08;;;;;;;19.93;9.63;;;;;;;18.39;100.00;100423.36;1722468;81;22545;-60
2021/07/25 01:02:51;;;;;;;17.23;8.30;;;;;;;18.36;100.00;100423.30;1719029;81;21177;-61
2021/07/25 01:05:33;;;;;;;16.80;9.80;;;;;;;18.32;100.00;100418.72;1721872;81;21016;-61
2021/07/25 01:08:14;;;;;;;13.98;8.33;;;;;;;18.43;100.00;100420.55;1670670;84;21572;-61
2021/07/25 01:10:41;;;;;;;12.07;7.60;;;;;;;18.46;100.00;100420.89;1717125;81;21038;-61
2021/07/25 01:13:09;;;;;;;14.03;8.00;;;;;;;18.35;100.00;100416.42;1711831;82;22543;-61
2021/07/25 01:15:36;;;;;;;13.37;7.63;;;;;;;18.36;100.00;100426.45;1715213;82;21326;-61
2021/07/25 01:18:04;;;;;;;13.30;7.47;;;;;;;18.35;100.00;100426.98;1687128;83;21163;-61
2021/07/25 01:20:30;;;;;;;15.73;8.33;;;;;;;18.36;100.00;100429.09;1711488;82;21597;-61
2021/07/25 01:22:57;;;;;;;13.47;8.13;;;;;;;18.36;100.00;100423.82;1711509;82;21041;-60
2021/07/25 01:25:25;;;;;;;16.23;7.77;;;;;;;18.32;100.00;100420.84;1712779;82;21127;-61
2021/07/25 01:28:08;;;;;;;20.83;8.90;;;;;;;18.18;100.00;100424.23;1710226;82;21183;-61
2021/07/25 01:30:37;;;;;;;17.33;7.70;;;;;;;18.12;100.00;100421.18;1705361;82;21485;-61
2021/07/25 01:33:12;;;;;;;12.97;7.83;;;;;;;18.13;100.00;100431.22;1715812;82;21033;-62
2021/07/25 01:35:39;;;;;;;14.80;7.80;;;;;;;18.10;100.00;100432.47;1707984;82;20973;-61
2021/07/25 01:38:09;;;;;;;16.47;8.33;;;;;;;18.08;100.00;100432.42;1714863;82;20989;-61
2021/07/25 01:40:38;;;;;;;13.67;8.37;;;;;;;18.10;100.00;100433.78;1707150;82;20952;-60
2021/07/25 01:43:09;;;;;;;15.33;8.57;;;;;;;18.11;100.00;100431.98;1713754;82;20941;-61
2021/07/25 01:45:35;;;;;;;13.50;8.60;;;;;;;18.10;100.00;100433.78;1708363;82;21067;-61
2021/07/25 01:48:03;;;;;;;15.57;8.03;;;;;;;18.07;100.00;100434.27;1660995;84;21008;-61
2021/07/25 01:50:30;;;;;;;14.83;7.60;;;;;;;18.12;100.00;100440.97;1716257;81;21063;-62
2021/07/25 01:52:56;;;;;;;13.87;7.40;;;;;;;18.06;100.00;100446.34;1716883;81;22381;-61
2021/07/25 01:55:24;;;;;;;12.60;8.17;;;;;;;18.03;100.00;100441.00;1712223;82;21559;-61
2021/07/25 01:57:50;;;;;;;17.77;8.53;;;;;;;18.08;100.00;100439.02;1710691;82;21095;-63
2021/07/25 02:00:18;;;;;;;15.43;7.97;;;;;;;18.07;100.00;100447.94;1710984;82;21080;-63
2021/07/25 02:02:44;;;;;;;13.63;8.43;;;;;;;17.91;100.00;100449.41;1710998;82;21033;-63
2021/07/25 02:05:11;;;;;;;16.47;7.83;;;;;;;18.10;100.00;100444.34;1718991;81;21163;-63
2021/07/25 02:07:39;;;;;;;17.07;8.40;;;;;;;18.15;100.00;100441.04;1713565;83;21652;-63
2021/07/25 02:10:07;;;;;;;15.53;8.23;;;;;;;18.11;100.00;100445.97;1719757;81;21000;-63
2021/07/25 02:12:34;;;;;;;15.63;7.77;;;;;;;18.23;100.00;100446.77;1711508;82;21042;-63
2021/07/25 02:15:01;;;;;;;16.33;9.00;;;;;;;18.15;100.00;100446.31;1715254;83;22407;-63
2021/07/25 02:17:27;;;;;;;15.00;9.90;;;;;;;18.16;100.00;100448.71;1721461;81;21197;-64
2021/07/25 02:19:55;;;;;;;16.23;8.17;;;;;;;18.31;100.00;100452.74;1709549;82;21113;-62
2021/07/25 02:22:21;;;;;;;13.40;8.00;;;;;;;18.40;100.00;100457.95;1712170;82;21616;-60
2021/07/25 02:24:48;;;;;;;11.80;7.50;;;;;;;18.36;100.00;100455.48;1708681;82;20938;-62
2021/07/25 02:27:14;;;;;;;13.53;8.77;;;;;;;18.55;100.00;100462.78;1719641;81;21565;-61
2021/07/25 02:29:41;;;;;;;16.53;8.40;;;;;;;18.73;100.00;100464.00;1722367;81;21153;-62
2021/07/25 02:32:08;;;;;;;14.80;8.87;;;;;;;18.90;100.00;100464.08;1714348;83;20901;-62
2021/07/25 02:34:34;;;;;;;11.67;7.87;;;;;;;19.15;100.00;100467.77;1725215;81;20987;-61
2021/07/25 02:37:05;;;;;;;19.43;9.00;;;;;;;19.29;100.00;100465.66;1726881;81;21004;-61
2021/07/25 02:39:31;;;;;;;17.57;8.83;;;;;;;19.41;100.00;100463.77;1716823;82;21001;-61
2021/07/25 02:41:58;;;;;;;14.67;8.53;;;;;;;19.48;100.00;100466.28;1725065;81;22224;-61
2021/07/25 02:44:24;;;;;;;13.20;8.30;;;;;;;19.58;100.00;100468.56;1727353;81;21009;-61
2021/07/25 02:46:51;;;;;;;12.03;7.63;;;;;;;19.42;100.00;100471.98;1716750;82;20999;-60
2021/07/25 02:49:18;;;;;;;17.27;8.07;;;;;;;19.44;100.00;100469.92;1724341;81;21395;-61
2021/07/25 02:51:44;;;;;;;12.63;8.63;;;;;;;19.51;100.00;100472.39;1726393;81;21592;-61
2021/07/25 02:54:11;;;;;;;13.63;7.80;;;;;;;19.60;100.00;100475.76;1726199;81;22413;-61
2021/07/25 02:56:38;;;;;;;12.73;7.20;;;;;;;19.74;100.00;100479.48;1717254;82;20944;-61
2021/07/25 02:59:04;;;;;;;10.57;6.80;;;;;;;19.76;100.00;100475.53;1714057;82;21061;-61
2021/07/25 03:01:32;;;;;;;11.13;7.00;;;;;;;20.02;100.00;100477.30;1704381;79;21099;-61
2021/07/25 03:03:59;;;;;;;12.63;7.10;;;;;;;20.29;100.00;100476.12;1682769;84;21079;-62
2021/07/25 03:06:25;;;;;;;11.03;7.30;;;;;;;20.52;100.00;100481.27;1683632;84;21141;-62
2021/07/25 03:08:52;;;;;;;12.47;7.50;;;;;;;20.92;100.00;100485.52;1686876;84;21034;-61
2021/07/25 03:11:21;;;;;;;11.90;6.77;;;;;;;21.60;100.00;100486.85;1684871;84;21135;-61
2021/07/25 03:13:47;;;;;;;13.13;7.53;;;;;;;22.41;100.00;100481.96;1683992;84;21082;-60
2021/07/25 03:16:15;;;;;;;10.97;7.23;;;;;;;22.93;100.00;100482.55;1686324;84;21628;-61
2021/07/25 03:18:43;;;;;;;11.87;7.23;;;;;;;23.58;100.00;100483.00;1685010;84;21558;-61
2021/07/25 03:21:12;;;;;;;12.77;7.23;;;;;;;24.08;100.00;100476.67;1677869;84;21122;-62
2021/07/25 03:23:38;;;;;;;11.33;6.60;;;;;;;24.54;100.00;100470.77;1684119;84;21422;-61
2021/07/25 03:26:05;;;;;;;11.67;7.70;;;;;;;25.19;100.00;100468.14;1686035;84;21564;-61
2021/07/25 03:28:31;;;;;;;9.37;6.43;;;;;;;25.82;100.00;100478.98;1683128;84;21587;-62
2021/07/25 03:30:58;;;;;;;8.60;6.17;;;;;;;26.54;100.00;100472.45;1677409;84;21286;-61
2021/07/25 03:33:25;;;;;;;9.33;5.87;;;;;;;27.26;100.00;100472.95;1683347;84;20994;-62
2021/07/25 03:35:51;;;;;;;13.00;5.60;;;;;;;27.76;100.00;100471.41;1685459;84;21007;-62
2021/07/25 03:38:18;;;;;;;9.13;5.50;;;;;;;27.97;100.00;100477.79;1685785;84;21058;-61
2021/07/25 03:40:46;;;;;;;10.03;6.00;;;;;;;28.20;100.00;100475.50;1679134;84;21051;-61
2021/07/25 03:43:13;;;;;;;8.05;5.80;;;;;;;28.32;100.00;100480.38;1685631;84;21183;-62
2021/07/25 03:45:43;;;;;;;7.62;5.92;;;;;;;28.71;100.00;100477.79;1685753;84;21030;-61
2021/07/25 03:48:09;;;;;;;9.98;5.85;;;;;;;28.88;100.00;100477.20;1686497;84;20920;-61
2021/07/25 03:50:36;;;;;;;7.15;5.83;;;;;;;29.15;100.00;100481.20;1624262;87;21520;-61
2021/07/25 03:53:04;;;;;;;8.70;5.58;;;;;;;29.53;100.00;100478.20;1626986;87;21054;-61
2021/07/25 03:55:31;;;;;;;7.92;6.28;;;;;;;29.99;94.38;100485.17;1683048;84;21608;-61
2021/07/25 03:57:58;;;;;;;9.30;5.25;;;;;;;30.24;88.66;100487.80;1685029;84;21578;-60
2021/07/25 04:00:25;;;;;;;9.93;5.33;;;;;;;30.49;78.24;100483.05;1684017;84;21023;-60
2021/07/25 04:02:51;;;;;;;10.05;5.72;;;;;;;30.47;74.43;100485.28;1655699;84;20999;-61
2021/07/25 04:05:18;;;;;;;6.62;5.50;;;;;;;30.68;69.66;100487.39;1657569;86;21657;-61
2021/07/25 04:07:45;;;;;;;7.83;4.92;;;;;;;30.89;64.76;100491.13;1660926;85;21501;-62
2021/07/25 04:10:13;;;;;;;6.97;5.12;;;;;;;30.91;65.92;100488.11;1656644;86;20856;-62
2021/07/25 04:12:39;;;;;;;9.63;5.50;;;;;;;30.91;63.77;100486.77;1656183;86;20959;-63
2021/07/25 04:15:08;;;;;;;6.92;4.62;;;;;;;31.04;60.90;100485.85;1657428;86;21049;-62
2021/07/25 04:17:35;;;;;;;9.50;5.47;;;;;;;31.17;59.96;100485.46;1656074;85;21093;-61
2021/07/25 04:20:04;;;;;;;7.20;5.55;;;;;;;31.34;57.78;100482.03;1658792;86;21014;-61
2021/07/25 04:22:37;;;;;;;8.08;5.28;;;;;;;31.20;54.87;100487.53;1655633;86;21154;-64
2021/07/25 04:25:05;;;;;;;10.20;5.75;;;;;;;31.11;53.85;100493.47;1654382;85;21304;-62
2021/07/25 04:27:32;;;;;;;7.10;4.85;;;;;;;31.13;55.36;100488.55;1653880;86;21060;-62
2021/07/25 04:29:59;;;;;;;8.28;4.85;;;;;;;31.24;54.21;100493.31;1657362;86;21610;-61
2021/07/25 04:32:26;;;;;;;7.33;4.85;;;;;;;31.23;52.89;100496.33;1655521;85;22070;-63
2021/07/25 04:34:54;;;;;;;8.40;4.72;;;;;;;31.31;54.60;100490.73;1655444;86;21575;-61
2021/07/25 04:37:27;;;;;;;7.72;4.85;;;;;;;31.42;53.34;100493.36;1656931;86;21049;-62
2021/07/25 04:39:53;;;;;;;8.18;5.12;;;;;;;31.61;52.79;100493.81;1656252;86;21073;-61
2021/07/25 04:42:25;;;;;;;7.15;4.70;;;;;;;31.62;50.71;100498.09;1656066;84;21018;-61
2021/07/25 04:45:02;;;;;;;8.03;5.45;;;;;;;31.64;52.18;100493.19;1654849;86;21173;-62
2021/07/25 04:47:40;;;;;;;10.90;5.87;;;;;;;31.73;50.56;100499.34;1653782;85;21017;-63
2021/07/25 04:50:11;;;;;;;9.28;5.20;;;;;;;31.78;49.92;100501.64;1634479;86;21011;-62
2021/07/25 04:52:40;;;;;;;6.85;5.28;;;;;;;31.89;50.89;100506.96;1651135;86;21403;-61
2021/07/25 04:55:12;;;;;;;9.40;5.47;;;;;;;32.14;49.60;100507.46;1654663;86;20955;-62
2021/07/25 04:57:43;;;;;;;9.18;5.75;;;;;;;32.41;49.16;100506.84;1652091;86;21163;-61
2021/07/25 05:00:14;;;;;;;11.03;6.30;;;;;;;32.65;47.36;100503.55;1655693;86;20967;-62
2021/07/25 05:02:43;;;;;;;9.18;4.97;;;;;;;32.91;47.11;100499.36;1653524;85;20971;-62
2021/07/25 05:05:11;;;;;;;8.33;5.30;;;;;;;33.27;45.41;100508.84;1655386;86;21097;-62
2021/07/25 05:07:40;;;;;;;12.63;5.15;;;;;;;33.47;44.36;100510.77;1650221;86;21521;-62
2021/07/25 05:10:09;;;;;;;13.28;5.67;;;;;;;33.71;42.52;100508.71;1653866;86;21176;-62
2021/07/25 05:12:45;;;;;;;13.55;5.33;;;;;;;33.83;41.26;100512.02;1648441;85;21061;-63
2021/07/25 05:15:15;;;;;;;10.58;5.50;;;;;;;33.91;41.39;100505.75;1657848;85;21586;-60
2021/07/25 05:17:56;;;;;;;13.28;6.12;;;;;;;34.20;41.70;100508.08;1652188;86;21102;-61
2021/07/25 05:20:41;;;;;;;9.38;6.03;;;;;;;34.51;40.78;100515.14;1634662;86;20991;-61
2021/07/25 05:23:23;;;;;;;12.50;5.60;;;;;;;34.45;39.24;100513.74;1649285;86;21148;-60
2021/07/25 05:25:52;;;;;;;11.35;5.22;;;;;;;34.41;39.22;100516.91;1645751;86;21073;-61
2021/07/25 05:28:20;;;;;;;9.63;5.58;;;;;;;34.66;39.42;100516.35;1651419;86;22799;-60
2021/07/25 05:30:54;;;;;;;9.75;5.17;;;;;;;35.07;38.28;100518.02;1647379;86;21062;-60
2021/07/25 05:33:22;;;;;;;9.98;5.47;;;;;;;35.17;37.08;100514.06;1646132;86;21054;-62
2021/07/25 05:35:48;;;;;;;10.50;5.00;;;;;;;35.22;36.95;100514.38;1649035;86;21171;-61
2021/07/25 05:38:16;;;;;;;11.73;5.50;;;;;;;35.47;37.26;100513.17;1654707;86;20939;-61
2021/07/25 05:40:42;;;;;;;9.88;5.30;;;;;;;35.87;35.95;100516.96;1648482;86;21142;-60
2021/07/25 05:43:10;;;;;;;8.58;4.42;;;;;;;36.13;35.68;100517.28;1650354;86;21152;-61
2021/07/25 05:45:36;;;;;;;9.80;4.58;;;;;;;36.43;34.81;100514.91;1648039;86;21037;-60
2021/07/25 05:48:04;;;;;;;8.55;4.90;;;;;;;36.61;33.85;100515.95;1652176;86;21118;-62
2021/07/25 05:50:30;;;;;;;10.13;4.92;;;;;;;36.85;34.34;100521.14;1641259;86;20951;-60
2021/07/25 05:52:58;;;;;;;10.40;4.90;;;;;;;37.33;33.17;100522.38;1652145;86;20991;-60
2021/07/25 05:55:29;;;;;;;10.15;4.60;;;;;;;37.77;32.69;100514.68;1649213;86;21077;-62
2021/07/25 05:57:56;;;;;;;8.68;5.08;;;;;;;38.20;31.25;100514.88;1648182;86;21148;-61
2021/07/25 06:00:22;;;;;;;10.55;5.80;;;;;;;38.29;30.97;100517.92;1647327;86;21188;-61
2021/07/25 06:03:00;;;;;;;12.10;4.85;;;;;;;38.47;30.81;100516.30;1669906;84;21410;-60
2021/07/25 06:05:35;;;;;;;8.38;5.15;;;;;;;38.53;29.94;100517.58;1683174;84;20936;-61
2021/07/25 06:08:04;;;;;;;9.40;5.30;;;;;;;38.71;29.49;100519.17;1655318;84;21042;-62
2021/07/25 06:10:31;;;;;;;10.13;5.80;;;;;;;38.56;29.31;100518.76;1686891;84;21668;-60
2021/07/25 06:13:03;;;;;;;9.23;5.28;;;;;;;38.18;28.63;100509.58;1679797;84;21244;-62
2021/07/25 06:15:30;;;;;;;10.90;4.72;;;;;;;38.02;29.82;100519.82;1688405;84;21441;-62
2021/07/25 06:18:01;;;;;;;12.35;5.05;;;;;;;37.95;29.27;100518.53;1678513;84;21007;-63
2021/07/25 06:20:28;;;;;;;13.50;6.40;;;;;;;38.12;28.74;100524.09;1690564;84;21570;-62
2021/07/25 06:22:55;;;;;;;12.68;5.37;;;;;;;37.97;29.56;100517.61;1692114;84;21647;-62
2021/07/25 06:25:25;;;;;;;14.07;5.45;;;;;;;38.02;29.26;100521.97;1689989;84;22911;-62
2021/07/25 06:27:54;;;;;;;12.95;5.90;;;;;;;38.08;29.26;100517.80;1691820;84;21027;-61
2021/07/25 06:30:23;;;;;;;13.18;5.95;;;;;;;38.25;29.47;100517.09;1689930;84;21085;-60
2021/07/25 06:33:01;;;;;;;10.38;5.03;;;;;;;38.54;29.17;100522.44;1691996;84;20919;-60
2021/07/25 06:35:30;;;;;;;13.18;6.42;;;;;;;38.81;28.35;100521.30;1696368;84;21025;-60
2021/07/25 06:37:59;;;;;;;12.65;6.10;;;;;;;39.15;28.46;100526.22;1686338;84;21179;-60
2021/07/25 06:40:26;;;;;;;13.25;5.92;;;;;;;39.53;27.82;100524.94;1693116;84;21487;-60
2021/07/25 06:42:55;;;;;;;12.88;6.28;;;;;;;39.61;27.25;100526.58;1695905;84;20959;-61
2021/07/25 06:45:23;;;;;;;18.45;7.35;;;;;;;39.93;27.30;100524.77;1694035;84;21082;-60
2021/07/25 06:47:50;;;;;;;15.40;6.55;;;;;;;40.14;26.19;100530.45;1695663;84;21140;-60
2021/07/25 06:50:21;;;;;;;10.72;5.67;;;;;;;40.02;26.38;100527.39;1695236;84;21190;-60
2021/07/25 06:52:48;;;;;;;12.78;5.37;;;;;;;40.16;26.26;100530.06;1690329;84;20919;-60
2021/07/25 06:55:15;;;;;;;10.58;5.78;;;;;;;40.46;25.66;100529.89;1692323;84;21571;-62
2021/07/25 06:57:42;;;;;;;12.07;5.95;;;;;;;40.38;25.45;100532.58;1687277;84;21464;-61
2021/07/25 07:00:10;;;;;;;14.45;5.33;;;;;;;40.27;25.91;100526.28;1694695;84;21645;-60
2021/07/25 07:02:54;;;;;;;14.50;5.75;;;;;;;40.04;25.27;100525.64;1669942;84;21843;-60
2021/07/25 07:05:24;;;;;;;10.50;4.97;;;;;;;39.89;25.64;100525.53;1646653;86;21018;-60
2021/07/25 07:07:55;;;;;;;12.15;5.60;;;;;;;40.39;26.04;100523.82;1652004;86;22289;-60
2021/07/25 07:10:25;;;;;;;11.25;6.87;;;;;;;40.67;25.48;100527.92;1639554;86;21054;-61
2021/07/25 07:12:54;;;;;;;10.28;5.78;;;;;;;40.58;25.23;100531.01;1643591;86;21001;-61
2021/07/25 07:15:21;;;;;;;11.57;5.28;;;;;;;40.60;25.49;100525.92;1647473;86;21635;-61
2021/07/25 07:17:50;;;;;;;11.10;6.12;;;;;;;41.16;24.89;100531.52;1658626;86;21043;-60
2021/07/25 07:20:17;;;;;;;14.47;5.83;;;;;;;41.35;23.96;100532.37;1647770;85;21516;-61
2021/07/25 07:22:56;;;;;;;11.60;5.80;;;;;;;41.27;23.94;100531.56;1647721;86;21085;-61
2021/07/25 07:25:24;;;;;;;10.45;5.30;;;;;;;41.27;24.46;100535.67;1650942;86;20959;-60
2021/07/25 07:27:51;;;;;;;10.85;5.30;;;;;;;41.09;24.90;100535.00;1651133;86;21106;-60
2021/07/25 07:30:18;;;;;;;15.18;6.37;;;;;;;40.98;24.50;100538.27;1654818;86;21701;-60
2021/07/25 07:32:44;;;;;;;10.60;5.10;;;;;;;40.70;24.71;100538.10;1654072;86;20979;-60
2021/07/25 07:35:11;;;;;;;8.80;4.80;;;;;;;40.54;24.14;100539.73;1651717;86;21021;-60
2021/07/25 07:37:37;;;;;;;8.68;5.03;;;;;;;40.40;24.33;100538.27;1648362;86;20990;-60
2021/07/25 07:40:05;;;;;;;9.48;5.08;;;;;;;40.58;24.31;100536.47;1651294;86;21467;-60
2021/07/25 07:42:31;;;;;;;10.00;4.85;;;;;;;40.83;24.29;100540.11;1651374;86;20903;-60
2021/07/25 07:44:58;;;;;;;12.30;4.78;;;;;;;40.85;24.53;100544.63;1651830;86;21144;-61
2021/07/25 07:47:25;;;;;;;14.23;5.00;;;;;;;40.94;24.57;100541.54;1652397;86;21584;-60
2021/07/25 07:49:51;;;;;;;11.22;4.67;;;;;;;41.19;24.08;100547.16;1654358;86;21015;-61
2021/07/25 07:52:19;;;;;;;8.38;4.53;;;;;;;41.22;23.08;100546.95;1648629;86;21447;-60
2021/07/25 07:54:45;;;;;;;10.45;3.80;;;;;;;40.71;23.11;100540.44;1651001;86;21094;-60
2021/07/25 07:57:15;;;;;;;8.78;4.37;;;;;;;40.01;24.20;100549.63;1655024;86;21126;-61
2021/07/25 07:59:41;;;;;;;8.78;4.42;;;;;;;39.56;25.04;100542.71;1655846;86;28208;-60
2021/07/25 08:02:08;;;;;;;6.97;3.62;;;;;;;39.46;25.04;100539.86;1657161;84;21098;-60
2021/07/25 08:04:34;;;;;;;7.28;3.90;;;;;;;39.41;24.32;100540.40;1685248;84;21754;-60
2021/07/25 08:07:02;;;;;;;7.05;3.62;;;;;;;39.77;24.51;100532.61;1686435;84;21311;-61
2021/07/25 08:09:28;;;;;;;8.58;3.30;;;;;;;40.16;23.52;100533.59;1686319;84;21031;-61
2021/07/25 08:11:56;;;;;;;7.10;3.20;;;;;;;40.22;23.04;100538.89;1685890;84;21031;-60
2021/07/25 08:14:23;;;;;;;4.50;2.90;;;;;;;39.87;24.06;100541.49;1681712;84;21023;-60
2021/07/25 08:16:50;;;;;;;4.87;2.87;;;;;;;39.82;23.01;100541.84;1685059;84;21097;-60
2021/07/25 08:19:16;;;;;;;4.47;2.72;;;;;;;39.75;23.07;100544.50;1685458;84;20955;-61
2021/07/25 08:21:43;;;;;;;5.90;2.92;;;;;;;39.75;23.18;100537.67;1680360;84;21533;-59
2021/07/25 08:24:09;;;;;;;5.05;3.15;;;;;;;39.87;23.13;100540.71;1681454;84;21010;-61
2021/07/25 08:26:36;;;;;;;5.20;2.72;;;;;;;39.55;22.96;100544.43;1681715;84;21137;-60
2021/07/25 08:29:03;;;;;;;5.25;2.37;;;;;;;39.44;22.56;100537.52;1683234;84;21161;-61
2021/07/25 08:31:30;;;;;;;5.35;2.70;;;;;;;39.54;22.75;100538.77;1680377;84;21106;-60
2021/07/25 08:33:56;;;;;;;5.92;3.00;;;;;;;39.94;22.09;100538.64;1679232;84;20975;-60
2021/07/25 08:36:23;;;;;;;5.15;2.47;;;;;;;40.35;21.58;100531.98;1684469;84;21098;-60
2021/07/25 08:38:50;;;;;;;4.50;2.87;;;;;;;40.55;21.39;100529.81;1683974;84;21097;-62
2021/07/25 08:41:42;;;;;;;5.20;2.25;;;;;;;40.64;21.85;100524.00;1686265;84;21290;-61
2021/07/25 08:44:48;;;;;;;5.47;3.20;;;;;;;40.81;21.74;100526.06;1672575;84;20994;-60
2021/07/25 08:47:29;;;;;;;5.25;2.70;;;;;;;40.65;21.58;100526.95;1684627;84;21138;-59
2021/07/25 08:50:11;;;;;;;5.78;2.92;;;;;;;40.62;21.53;100523.61;1656933;84;21714;-60
2021/07/25 08:52:46;;;;;;;9.38;3.22;;;;;;;40.89;21.73;100530.20;1678803;84;21620;-59
2021/07/25 08:55:17;;;;;;;7.15;3.87;;;;;;;40.97;21.60;100523.59;1684347;84;21839;-60
2021/07/25 08:57:48;;;;;;;9.53;3.33;;;;;;;40.80;21.73;100521.77;1685943;84;21275;-59
2021/07/25 09:00:21;;;;;;;5.08;3.05;;;;;;;40.61;21.49;100524.75;1688558;84;21146;-60
2021/07/25 09:02:49;;;;;;;5.50;3.20;;;;;;;40.84;22.10;100526.67;1626920;87;21111;-59
2021/07/25 09:05:18;;;;;;;6.72;3.40;;;;;;;40.97;22.37;100524.38;1629745;84;21040;-60
2021/07/25 09:07:45;;;;;;;8.50;3.50;;;;;;;41.44;21.17;100521.86;1684029;84;21146;-60
2021/07/25 09:10:15;;;;;;;5.80;2.92;;;;;;;41.66;20.84;100520.73;1686981;84;21138;-60
2021/07/25 09:12:42;;;;;;;5.83;3.10;;;;;;;41.56;20.40;100519.56;1687942;84;21062;-60
2021/07/25 09:15:14;;;;;;;6.10;3.37;;;;;;;41.37;20.69;100524.55;1686714;84;21114;-60
2021/07/25 09:17:41;;;;;;;8.28;3.58;;;;;;;41.26;21.05;100520.43;1687880;84;21121;-60
2021/07/25 09:20:19;;;;;;;7.20;3.40;;;;;;;41.17;22.20;100517.25;1687198;84;21169;-60
2021/07/25 09:22:54;;;;;;;6.20;3.50;;;;;;;41.38;21.13;100519.29;1682208;84;21130;-60
2021/07/25 09:25:33;;;;;;;6.50;3.42;;;;;;;41.66;20.69;100522.69;1688372;84;20991;-61
2021/07/25 09:28:06;;;;;;;6.57;3.40;;;;;;;41.56;20.60;100525.59;1689827;84;21173;-60
2021/07/25 09:30:33;;;;;;;4.87;2.80;;;;;;;41.33;21.32;100522.61;1685200;84;21057;-60
2021/07/25 09:33:00;;;;;;;5.95;3.20;;;;;;;41.13;21.54;100526.81;1688227;84;21174;-63
2021/07/25 09:35:32;;;;;;;11.00;3.55;;;;;;;40.76;21.67;100522.30;1688008;84;21097;-60
2021/07/25 09:38:09;;;;;;;6.78;3.27;;;;;;;40.89;21.27;100522.00;1684468;84;21015;-62
2021/07/25 09:40:40;;;;;;;5.72;2.70;;;;;;;41.35;21.79;100519.47;1688149;84;21095;-60
2021/07/25 09:43:20;;;;;;;5.97;3.02;;;;;;;41.53;21.12;100514.08;1677080;84;21110;-60
2021/07/25 09:45:54;;;;;;;4.90;2.72;;;;;;;41.52;20.98;100511.13;1687549;84;21859;-60
2021/07/25 09:48:25;;;;;;;4.67;3.02;;;;;;;41.40;20.13;100513.61;1688045;84;21497;-61
2021/07/25 09:50:53;;;;;;;8.30;3.75;;;;;;;41.47;20.36;100510.92;1688642;84;21822;-61
2021/07/25 09:53:19;;;;;;;5.08;2.98;;;;;;;41.83;20.21;100506.92;1688362;84;21555;-59
2021/07/25 09:55:46;;;;;;;4.67;2.83;;;;;;;42.06;19.89;100505.16;1659386;86;20991;-59
2021/07/25 09:58:12;;;;;;;6.15;2.95;;;;;;;42.23;20.08;100511.20;1692415;84;21167;-60
2021/07/25 10:00:46;;;;;;;5.40;3.05;;;;;;;42.23;19.96;100509.05;1691917;84;20988;-60
2021/07/25 10:03:28;;;;;;;5.08;3.27;;;;;;;41.73;20.20;100504.91;1690318;84;22191;-60
2021/07/25 10:05:54;;;;;;;8.10;3.60;;;;;;;41.31;20.07;100511.25;1683319;85;20995;-59
2021/07/25 10:08:21;;;;;;;6.15;4.05;;;;;;;40.68;20.52;100511.13;1685201;84;21072;-61
2021/07/25 10:10:52;;;;;;;5.90;3.47;;;;;;;39.84;20.57;100509.48;1676207;85;21652;-59
2021/07/25 10:13:20;;;;;;;5.95;3.62;;;;;;;39.44;22.24;100506.14;1684165;85;21004;-59
2021/07/25 10:15:59;;;;;;;4.83;3.35;;;;;;;39.52;21.76;100513.24;1673373;85;21541;-59
2021/07/25 10:18:27;;;;;;;6.35;3.15;;;;;;;39.43;20.57;100515.47;1668662;85;21158;-59
2021/07/25 10:20:57;;;;;;;5.45;3.30;;;;;;;39.16;20.57;100509.28;1680008;85;21125;-61
2021/07/25 10:23:39;;;;;;;6.05;3.20;;;;;;;39.35;20.94;100503.69;1675998;85;24812;-60
2021/07/25 10:26:06;;;;;;;8.30;3.90;;;;;;;39.74;20.75;100504.73;1670143;85;21105;-60
2021/07/25 10:28:33;;;;;;;4.35;3.20;;;;;;;40.40;20.21;100505.48;1679819;85;21479;-59
2021/07/25 10:31:00;;;;;;;6.35;2.92;;;;;;;40.96;19.67;100511.10;1681724;85;21183;-59
2021/07/25 10:33:28;;;;;;;4.62;3.00;;;;;;;41.16;19.21;100507.48;1678245;85;21080;-59
2021/07/25 10:35:56;;;;;;;8.05;3.50;;;;;;;41.33;19.25;100509.48;1676575;85;21783;-60
2021/07/25 10:38:45;;;;;;;6.33;3.47;;;;;;;41.19;20.46;100511.61;1681868;85;22062;-59
2021/07/25 10:41:24;;;;;;;6.40;3.55;;;;;;;41.12;19.88;100512.95;1631939;86;21034;-59
2021/07/25 10:43:50;;;;;;;6.70;3.42;;;;;;;41.08;19.64;100509.42;1633361;86;21089;-61
2021/07/25 10:46:22;;;;;;;7.30;3.45;;;;;;;40.73;19.85;100507.28;1634393;86;21153;-61
2021/07/25 10:49:09;;;;;;;5.12;3.22;;;;;;;40.25;19.81;100509.47;1634111;86;21137;-61
2021/07/25 10:51:56;;;;;;;6.22;3.33;;;;;;;39.84;20.50;100508.70;1634720;86;22180;-60
2021/07/25 10:54:28;;;;;;;6.85;3.67;;;;;;;40.04;20.78;100505.16;1632978;86;21149;-58
2021/07/25 10:57:03;;;;;;;7.85;3.85;;;;;;;40.56;20.05;100510.88;1633154;86;21586;-60
2021/07/25 10:59:52;;;;;;;4.90;3.52;;;;;;;40.55;19.42;100501.12;1634877;87;21019;-61
2021/07/25 11:02:29;;;;;;;5.83;3.30;;;;;;;40.35;19.68;100508.77;1634621;86;21732;-60
2021/07/25 11:05:00;;;;;;;6.25;3.62;;;;;;;40.44;19.64;100503.55;1633756;86;21099;-60
2021/07/25 11:07:32;;;;;;;6.05;3.45;;;;;;;40.47;21.33;100504.16;1634025;86;21085;-60
2021/07/25 11:10:11;;;;;;;8.75;3.77;;;;;;;40.66;21.08;100505.28;1635126;86;20978;-60
2021/07/25 11:12:55;;;;;;;11.78;5.03;;;;;;;40.71;20.68;100505.50;1632552;86;21003;-62
2021/07/25 11:15:36;;;;;;;9.25;4.33;;;;;;;40.40;20.71;100504.11;1631530;86;21828;-59
2021/07/25 11:18:11;;;;;;;11.63;4.28;;;;;;;40.14;21.58;100507.23;1626489;86;21132;-60
2021/07/25 11:20:57;;;;;;;8.85;4.75;;;;;;;39.99;21.72;100510.40;1625575;86;21039;-60
2021/07/25 11:23:27;;;;;;;8.48;4.42;;;;;;;39.81;22.12;100510.81;1622973;87;21663;-61
2021/07/25 11:25:54;;;;;;;9.40;5.05;;;;;;;39.73;22.24;100509.96;1625966;86;21046;-61
2021/07/25 11:28:40;;;;;;;8.43;4.22;;;;;;;39.79;22.60;100507.11;1623724;86;21179;-60